createdAt,value
2018-06-04T00:00:15.312Z,101258.69
2018-06-04T00:00:37.063Z,101264.58
2018-06-04T00:00:58.829Z,101258.41
2018-06-04T00:01:20.600Z,101258.28
2018-06-04T00:01:42.368Z,101259.05
2018-06-04T00:02:04.155Z,101254.06
2018-06-04T00:02:25.929Z,101249.72
2018-06-04T00:02:47.709Z,101254.19
2018-06-04T00:03:09.477Z,101259.44
2018-06-04T00:03:31.263Z,101253.66
2018-06-04T00:03:53.045Z,101256.56
2018-06-04T00:04:14.804Z,101250.39
2018-06-04T00:04:36.592Z,101251.83
2018-06-04T00:04:58.357Z,101253.02
2018-06-04T00:05:20.147Z,101253.52
2018-06-04T00:05:41.901Z,101253.52
2018-06-04T00:06:03.656Z,101249.34
2018-06-04T00:06:25.420Z,101252.23
2018-06-04T00:06:47.204Z,101251.83
2018-06-04T00:07:08.995Z,101248.69
2018-06-04T00:07:30.753Z,101250.52
2018-06-04T00:07:52.526Z,101250.39
2018-06-04T00:08:14.302Z,101245.66
2018-06-04T00:08:36.109Z,101248.16
2018-06-04T00:08:57.885Z,101255.77
2018-06-04T00:09:19.646Z,101250.13
2018-06-04T00:09:41.412Z,101253.94
2018-06-04T00:10:03.198Z,101251.83
2018-06-04T00:10:24.972Z,101253.81
2018-06-04T00:10:46.748Z,101253.41
2018-06-04T00:11:08.515Z,101246.45
2018-06-04T00:11:30.284Z,101249.08
2018-06-04T00:11:52.043Z,101252.89
2018-06-04T00:12:13.805Z,101254.58
2018-06-04T00:12:35.577Z,101251.83
2018-06-04T00:12:57.347Z,101251.03
2018-06-04T00:13:19.108Z,101252.75
2018-06-04T00:13:40.892Z,101255.25
2018-06-04T00:14:02.647Z,101257.36
2018-06-04T00:14:24.431Z,101249.47
2018-06-04T00:14:46.188Z,101253.02
2018-06-04T00:15:07.959Z,101262.09
2018-06-04T00:15:29.737Z,101257.23
2018-06-04T00:15:51.502Z,101255.13
2018-06-04T00:16:13.264Z,101258.78
2018-06-04T00:16:35.037Z,101251.81
2018-06-04T00:16:56.799Z,101263.41
2018-06-04T00:17:18.550Z,101259.97
2018-06-04T00:17:40.298Z,101255.63
2018-06-04T00:18:02.070Z,101258.13
2018-06-04T00:18:23.857Z,101257.73
2018-06-04T00:18:45.629Z,101258.66
2018-06-04T00:19:07.404Z,101258.13
2018-06-04T00:19:29.167Z,101258.66
2018-06-04T00:19:50.922Z,101257.86
2018-06-04T00:20:12.669Z,101258.13
2018-06-04T00:20:34.434Z,101263.27
2018-06-04T00:20:56.186Z,101256.30
2018-06-04T00:21:17.937Z,101256.30
2018-06-04T00:21:39.704Z,101252.61
2018-06-04T00:22:01.481Z,101254.59
2018-06-04T00:22:23.252Z,101256.30
2018-06-04T00:22:45.020Z,101258.92
2018-06-04T00:23:06.813Z,101258.92
2018-06-04T00:23:28.563Z,101257.48
2018-06-04T00:23:50.327Z,101257.22
2018-06-04T00:24:12.088Z,101254.31
2018-06-04T00:24:33.857Z,101254.08
2018-06-04T00:24:55.696Z,101258.53
2018-06-04T00:25:17.462Z,101261.28
2018-06-04T00:25:39.215Z,101255.91
2018-06-04T00:26:00.984Z,101251.05
2018-06-04T00:26:22.738Z,101254.98
2018-06-04T00:26:44.518Z,101255.23
2018-06-04T00:27:06.288Z,101254.72
2018-06-04T00:27:28.052Z,101251.30
2018-06-04T00:27:49.811Z,101243.41
2018-06-04T00:28:11.568Z,101249.19
2018-06-04T00:28:33.322Z,101247.36
2018-06-04T00:28:55.074Z,101245.93
2018-06-04T00:29:16.861Z,101244.48
2018-06-04T00:29:38.628Z,101244.09
2018-06-04T00:30:00.391Z,101253.00
2018-06-04T00:30:22.161Z,101242.89
2018-06-04T00:30:43.925Z,101247.50
2018-06-04T00:31:05.676Z,101247.37
2018-06-04T00:31:27.427Z,101248.69
2018-06-04T00:31:49.188Z,101247.50
2018-06-04T00:32:10.948Z,101244.75
2018-06-04T00:32:32.703Z,101243.95
2018-06-04T00:32:54.455Z,101237.39
2018-06-04T00:33:16.213Z,101240.66
2018-06-04T00:33:37.976Z,101244.20
2018-06-04T00:33:59.742Z,101240.14
2018-06-04T00:34:21.500Z,101246.45
2018-06-04T00:34:43.266Z,101246.73
2018-06-04T00:35:05.023Z,101237.53
2018-06-04T00:35:26.793Z,101242.27
2018-06-04T00:35:48.547Z,101243.70
2018-06-04T00:36:10.305Z,101239.77
2018-06-04T00:36:32.063Z,101242.79
2018-06-04T00:36:53.840Z,101240.16
2018-06-04T00:37:15.588Z,101244.38
2018-06-04T00:37:37.341Z,101246.20
2018-06-04T00:37:59.091Z,101242.14
2018-06-04T00:38:20.853Z,101245.16
2018-06-04T00:38:42.624Z,101238.59
2018-06-04T00:39:04.692Z,101243.58
2018-06-04T00:39:26.452Z,101241.47
2018-06-04T00:39:48.209Z,101241.47
2018-06-04T00:40:09.984Z,101239.24
2018-06-04T00:40:31.740Z,101243.83
2018-06-04T00:40:53.516Z,101237.27
2018-06-04T00:41:15.274Z,101243.31
2018-06-04T00:41:37.025Z,101240.16
2018-06-04T00:41:58.793Z,101246.73
2018-06-04T00:42:20.562Z,101243.70
2018-06-04T00:42:42.320Z,101241.87
2018-06-04T00:43:04.102Z,101241.06
2018-06-04T00:43:25.864Z,101244.25
2018-06-04T00:43:47.636Z,101244.10
2018-06-04T00:44:09.392Z,101250.81
2018-06-04T00:44:31.150Z,101244.48
2018-06-04T00:44:52.914Z,101246.48
2018-06-04T00:45:14.694Z,101247.11
2018-06-04T00:45:36.456Z,101249.10
2018-06-04T00:45:58.199Z,101245.69
2018-06-04T00:46:19.944Z,101247.79
2018-06-04T00:46:41.705Z,101247.91
2018-06-04T00:47:03.456Z,101253.05
2018-06-04T00:47:25.206Z,101246.60
2018-06-04T00:47:46.967Z,101250.41
2018-06-04T00:48:08.722Z,101243.84
2018-06-04T00:48:30.475Z,101244.61
2018-06-04T00:48:52.257Z,101237.52
2018-06-04T00:49:14.025Z,101242.38
2018-06-04T00:49:35.781Z,101245.16
2018-06-04T00:49:57.532Z,101242.94
2018-06-04T00:50:19.280Z,101242.77
2018-06-04T00:50:41.048Z,101238.99
2018-06-04T00:51:02.809Z,101241.62
2018-06-04T00:51:24.566Z,101241.22
2018-06-04T00:51:46.313Z,101241.74
2018-06-04T00:52:08.072Z,101240.43
2018-06-04T00:52:29.840Z,101238.72
2018-06-04T00:52:51.603Z,101238.84
2018-06-04T00:53:13.361Z,101238.33
2018-06-04T00:53:35.148Z,101239.12
2018-06-04T00:53:56.926Z,101236.89
2018-06-04T00:54:18.710Z,101234.78
2018-06-04T00:54:40.456Z,101237.93
2018-06-04T00:55:02.213Z,101241.87
2018-06-04T00:55:23.977Z,101237.80
2018-06-04T00:55:45.738Z,101238.44
2018-06-04T00:56:07.488Z,101237.68
2018-06-04T00:56:29.240Z,101238.44
2018-06-04T00:56:51.007Z,101239.89
2018-06-04T00:57:12.793Z,101241.73
2018-06-04T00:57:34.564Z,101237.66
2018-06-04T00:57:56.313Z,101237.66
2018-06-04T00:58:18.073Z,101239.89
2018-06-04T00:58:39.913Z,101245.27
2018-06-04T00:59:01.690Z,101239.50
2018-06-04T00:59:23.452Z,101237.39
2018-06-04T00:59:45.191Z,101237.52
2018-06-04T01:00:06.943Z,101233.05
2018-06-04T01:00:28.708Z,101233.85
2018-06-04T01:00:50.475Z,101236.47
2018-06-04T01:01:12.233Z,101242.12
2018-06-04T01:01:34.008Z,101236.47
2018-06-04T01:01:55.755Z,101240.29
2018-06-04T01:02:17.516Z,101234.78
2018-06-04T01:02:39.285Z,101230.05
2018-06-04T01:03:01.034Z,101234.64
2018-06-04T01:03:22.786Z,101233.98
2018-06-04T01:03:44.537Z,101235.69
2018-06-04T01:04:06.317Z,101235.95
2018-06-04T01:04:28.077Z,101229.78
2018-06-04T01:04:49.833Z,101233.72
2018-06-04T01:05:11.609Z,101233.20
2018-06-04T01:05:33.383Z,101231.49
2018-06-04T01:05:55.133Z,101229.66
2018-06-04T01:06:16.891Z,101223.48
2018-06-04T01:06:38.658Z,101234.13
2018-06-04T01:07:00.414Z,101226.23
2018-06-04T01:07:22.177Z,101223.22
2018-06-04T01:07:43.949Z,101228.99
2018-06-04T01:08:05.699Z,101227.67
2018-06-04T01:08:27.451Z,101231.62
2018-06-04T01:08:49.221Z,101228.47
2018-06-04T01:09:10.990Z,101231.22
2018-06-04T01:09:32.757Z,101230.30
2018-06-04T01:09:54.518Z,101232.02
2018-06-04T01:10:16.285Z,101228.72
2018-06-04T01:10:38.056Z,101231.34
2018-06-04T01:10:59.820Z,101233.58
2018-06-04T01:11:21.567Z,101232.42
2018-06-04T01:11:43.361Z,101230.32
2018-06-04T01:12:05.136Z,101223.59
2018-06-04T01:12:26.892Z,101225.70
2018-06-04T01:12:48.653Z,101225.70
2018-06-04T01:13:10.408Z,101223.07
2018-06-04T01:13:32.174Z,101219.92
2018-06-04T01:13:53.928Z,101220.32
2018-06-04T01:14:15.709Z,101223.61
2018-06-04T01:14:37.480Z,101227.16
2018-06-04T01:14:59.247Z,101222.42
2018-06-04T01:15:21.013Z,101223.73
2018-06-04T01:15:42.783Z,101218.88
2018-06-04T01:16:04.565Z,101220.98
2018-06-04T01:16:26.344Z,101217.97
2018-06-04T01:16:48.112Z,101222.42
2018-06-04T01:17:09.874Z,101221.63
2018-06-04T01:17:31.626Z,101217.17
2018-06-04T01:17:53.388Z,101225.45
2018-06-04T01:18:15.156Z,101222.95
2018-06-04T01:18:36.915Z,101225.58
2018-06-04T01:18:58.666Z,101217.17
2018-06-04T01:19:20.463Z,101225.97
2018-06-04T01:19:42.222Z,101223.88
2018-06-04T01:20:03.977Z,101223.88
2018-06-04T01:20:25.727Z,101224.92
2018-06-04T01:20:47.474Z,101222.42
2018-06-04T01:21:09.219Z,101225.05
2018-06-04T01:21:30.963Z,101224.66
2018-06-04T01:21:52.722Z,101224.92
2018-06-04T01:22:14.467Z,101224.67
2018-06-04T01:22:36.248Z,101228.76
2018-06-04T01:22:58.013Z,101222.95
2018-06-04T01:23:19.781Z,101222.03
2018-06-04T01:23:41.551Z,101224.42
2018-06-04T01:24:03.333Z,101227.84
2018-06-04T01:24:25.099Z,101226.66
2018-06-04T01:24:46.856Z,101223.90
2018-06-04T01:25:08.622Z,101224.14
2018-06-04T01:25:30.392Z,101224.14
2018-06-04T01:25:52.213Z,101230.58
2018-06-04T01:26:13.974Z,101226.64
2018-06-04T01:26:35.745Z,101225.33
2018-06-04T01:26:57.500Z,101222.70
2018-06-04T01:27:19.246Z,101227.84
2018-06-04T01:27:41.008Z,101220.20
2018-06-04T01:28:02.773Z,101220.59
2018-06-04T01:28:24.536Z,101222.83
2018-06-04T01:28:46.279Z,101222.43
2018-06-04T01:29:08.093Z,101228.20
2018-06-04T01:29:29.855Z,101222.95
2018-06-04T01:29:51.620Z,101218.09
2018-06-04T01:30:13.376Z,101228.47
2018-06-04T01:30:35.126Z,101223.34
2018-06-04T01:30:56.876Z,101223.73
2018-06-04T01:31:18.627Z,101227.55
2018-06-04T01:31:40.373Z,101226.11
2018-06-04T01:32:02.119Z,101225.33
2018-06-04T01:32:23.876Z,101223.36
2018-06-04T01:32:45.643Z,101223.23
2018-06-04T01:33:07.595Z,101227.57
2018-06-04T01:33:29.352Z,101224.16
2018-06-04T01:33:51.106Z,101222.57
2018-06-04T01:34:12.876Z,101223.61
2018-06-04T01:34:34.665Z,101229.01
2018-06-04T01:34:56.419Z,101228.61
2018-06-04T01:35:18.185Z,101227.16
2018-06-04T01:35:39.953Z,101221.51
2018-06-04T01:36:01.696Z,101224.01
2018-06-04T01:36:23.443Z,101222.83
2018-06-04T01:36:45.208Z,101225.84
2018-06-04T01:37:06.965Z,101228.87
2018-06-04T01:37:28.739Z,101223.48
2018-06-04T01:37:50.496Z,101220.98
2018-06-04T01:38:12.265Z,101222.95
2018-06-04T01:38:34.020Z,101224.27
2018-06-04T01:38:55.781Z,101220.48
2018-06-04T01:39:17.559Z,101219.81
2018-06-04T01:39:39.326Z,101220.73
2018-06-04T01:40:01.104Z,101222.05
2018-06-04T01:40:22.863Z,101220.73
2018-06-04T01:40:44.617Z,101221.38
2018-06-04T01:41:06.370Z,101217.84
2018-06-04T01:41:28.128Z,101217.05
2018-06-04T01:41:49.883Z,101218.36
2018-06-04T01:42:11.644Z,101222.42
2018-06-04T01:42:33.448Z,101217.05
2018-06-04T01:42:55.202Z,101222.30
2018-06-04T01:43:16.973Z,101214.02
2018-06-04T01:43:39.335Z,101219.67
2018-06-04T01:44:01.101Z,101219.28
2018-06-04T01:44:22.867Z,101226.09
2018-06-04T01:44:44.791Z,101229.91
2018-06-04T01:45:06.559Z,101222.42
2018-06-04T01:45:28.325Z,101221.23
2018-06-04T01:45:50.089Z,101225.18
2018-06-04T01:46:11.848Z,101213.23
2018-06-04T01:46:33.598Z,101218.61
2018-06-04T01:46:55.364Z,101220.20
2018-06-04T01:47:17.107Z,101223.34
2018-06-04T01:47:38.859Z,101219.01
2018-06-04T01:48:00.610Z,101212.84
2018-06-04T01:48:22.355Z,101215.19
2018-06-04T01:48:44.111Z,101224.38
2018-06-04T01:49:05.896Z,101218.09
2018-06-04T01:49:27.667Z,101217.17
2018-06-04T01:49:49.432Z,101217.44
2018-06-04T01:50:11.189Z,101222.57
2018-06-04T01:50:32.955Z,101219.03
2018-06-04T01:50:54.699Z,101215.21
2018-06-04T01:51:16.464Z,101216.53
2018-06-04T01:51:38.217Z,101212.86
2018-06-04T01:51:59.980Z,101216.67
2018-06-04T01:52:21.734Z,101212.33
2018-06-04T01:52:43.483Z,101216.15
2018-06-04T01:53:05.235Z,101219.17
2018-06-04T01:53:26.991Z,101216.55
2018-06-04T01:53:48.747Z,101213.25
2018-06-04T01:54:10.498Z,101216.41
2018-06-04T01:54:32.275Z,101218.51
2018-06-04T01:54:54.040Z,101214.31
2018-06-04T01:55:15.808Z,101213.52
2018-06-04T01:55:37.556Z,101219.02
2018-06-04T01:55:59.312Z,101212.45
2018-06-04T01:56:21.099Z,101213.40
2018-06-04T01:56:42.871Z,101216.39
2018-06-04T01:57:04.676Z,101214.31
2018-06-04T01:57:26.456Z,101220.61
2018-06-04T01:57:48.215Z,101210.63
2018-06-04T01:58:09.973Z,101216.00
2018-06-04T01:58:31.727Z,101209.96
2018-06-04T01:58:53.508Z,101210.36
2018-06-04T01:59:15.277Z,101211.67
2018-06-04T01:59:37.052Z,101213.25
2018-06-04T01:59:58.817Z,101210.11
2018-06-04T02:00:20.584Z,101207.20
2018-06-04T02:00:42.357Z,101206.29
2018-06-04T02:01:04.103Z,101212.86
2018-06-04T02:01:25.847Z,101208.52
2018-06-04T02:01:47.612Z,101213.52
2018-06-04T02:02:09.381Z,101210.11
2018-06-04T02:02:31.147Z,101204.45
2018-06-04T02:02:52.906Z,101206.16
2018-06-04T02:03:14.663Z,101208.14
2018-06-04T02:03:36.411Z,101210.90
2018-06-04T02:03:58.236Z,101211.02
2018-06-04T02:04:19.991Z,101203.54
2018-06-04T02:04:41.776Z,101207.48
2018-06-04T02:05:03.544Z,101209.31
2018-06-04T02:05:25.299Z,101207.20
2018-06-04T02:05:47.050Z,101202.08
2018-06-04T02:06:08.810Z,101199.84
2018-06-04T02:06:30.577Z,101202.48
2018-06-04T02:06:52.331Z,101207.73
2018-06-04T02:07:14.085Z,101207.20
2018-06-04T02:07:35.855Z,101205.77
2018-06-04T02:07:57.612Z,101203.25
2018-06-04T02:08:19.387Z,101207.98
2018-06-04T02:08:41.135Z,101210.22
2018-06-04T02:09:02.921Z,101203.25
2018-06-04T02:09:24.702Z,101210.37
2018-06-04T02:09:46.473Z,101208.27
2018-06-04T02:10:08.248Z,101199.87
2018-06-04T02:10:30.004Z,101201.70
2018-06-04T02:10:51.769Z,101207.59
2018-06-04T02:11:13.532Z,101203.02
2018-06-04T02:11:35.296Z,101201.83
2018-06-04T02:11:57.070Z,101206.02
2018-06-04T02:12:18.837Z,101204.19
2018-06-04T02:12:40.606Z,101201.44
2018-06-04T02:13:02.351Z,101207.36
2018-06-04T02:13:24.110Z,101208.00
2018-06-04T02:13:45.863Z,101206.69
2018-06-04T02:14:07.624Z,101203.54
2018-06-04T02:14:29.468Z,101200.79
2018-06-04T02:14:51.207Z,101201.83
2018-06-04T02:15:12.962Z,101199.47
2018-06-04T02:15:34.723Z,101207.06
2018-06-04T02:15:56.476Z,101198.40
2018-06-04T02:16:18.224Z,101204.56
2018-06-04T02:16:39.985Z,101204.59
2018-06-04T02:17:01.785Z,101201.83
2018-06-04T02:17:23.517Z,101207.34
2018-06-04T02:17:45.265Z,101203.67
2018-06-04T02:18:07.021Z,101204.06
2018-06-04T02:18:28.771Z,101198.81
2018-06-04T02:18:50.543Z,101208.00
2018-06-04T02:19:12.303Z,101202.38
2018-06-04T02:19:34.088Z,101203.02
2018-06-04T02:19:55.855Z,101203.54
2018-06-04T02:20:17.618Z,101201.44
2018-06-04T02:20:39.375Z,101193.31
2018-06-04T02:21:01.122Z,101205.64
2018-06-04T02:21:22.891Z,101207.09
2018-06-04T02:21:44.643Z,101200.52
2018-06-04T02:22:06.390Z,101209.56
2018-06-04T02:22:28.159Z,101210.37
2018-06-04T02:22:49.906Z,101203.02
2018-06-04T02:23:11.665Z,101205.38
2018-06-04T02:23:33.419Z,101208.27
2018-06-04T02:23:55.174Z,101204.34
2018-06-04T02:24:16.922Z,101198.56
2018-06-04T02:24:38.708Z,101202.10
2018-06-04T02:25:00.459Z,101204.71
2018-06-04T02:25:22.210Z,101202.89
2018-06-04T02:25:43.983Z,101199.35
2018-06-04T02:26:05.759Z,101200.80
2018-06-04T02:26:27.511Z,101202.23
2018-06-04T02:26:49.256Z,101202.77
2018-06-04T02:27:11.020Z,101204.34
2018-06-04T02:27:32.785Z,101201.98
2018-06-04T02:27:54.539Z,101197.52
2018-06-04T02:28:16.295Z,101197.13
2018-06-04T02:28:38.058Z,101201.58
2018-06-04T02:28:59.839Z,101197.91
2018-06-04T02:29:21.585Z,101197.52
2018-06-04T02:29:43.352Z,101195.29
2018-06-04T02:30:05.128Z,101199.63
2018-06-04T02:30:26.900Z,101196.05
2018-06-04T02:30:48.659Z,101200.14
2018-06-04T02:31:10.416Z,101201.06
2018-06-04T02:31:32.172Z,101194.20
2018-06-04T02:31:53.928Z,101197.36
2018-06-04T02:32:15.675Z,101196.70
2018-06-04T02:32:37.436Z,101192.38
2018-06-04T02:32:59.204Z,101190.66
2018-06-04T02:33:20.965Z,101191.98
2018-06-04T02:33:42.715Z,101187.25
2018-06-04T02:34:04.476Z,101194.60
2018-06-04T02:34:26.225Z,101192.11
2018-06-04T02:34:47.971Z,101190.03
2018-06-04T02:35:09.728Z,101190.54
2018-06-04T02:35:31.487Z,101189.75
2018-06-04T02:35:53.252Z,101186.86
2018-06-04T02:36:15.011Z,101190.27
2018-06-04T02:36:36.779Z,101191.06
2018-06-04T02:36:58.554Z,101190.14
2018-06-04T02:37:20.312Z,101186.73
2018-06-04T02:37:42.077Z,101188.31
2018-06-04T02:38:03.836Z,101185.29
2018-06-04T02:38:25.596Z,101181.35
2018-06-04T02:38:47.359Z,101192.25
2018-06-04T02:39:09.115Z,101185.83
2018-06-04T02:39:30.879Z,101182.53
2018-06-04T02:39:52.639Z,101185.56
2018-06-04T02:40:14.408Z,101178.47
2018-06-04T02:40:36.189Z,101187.79
2018-06-04T02:40:57.962Z,101186.22
2018-06-04T02:41:19.737Z,101175.34
2018-06-04T02:41:41.523Z,101176.39
2018-06-04T02:42:03.287Z,101181.24
2018-06-04T02:42:25.033Z,101179.53
2018-06-04T02:42:46.799Z,101182.28
2018-06-04T02:43:08.551Z,101175.33
2018-06-04T02:43:30.324Z,101178.59
2018-06-04T02:43:52.072Z,101177.30
2018-06-04T02:44:13.856Z,101176.12
2018-06-04T02:44:35.617Z,101173.49
2018-06-04T02:44:57.390Z,101178.47
2018-06-04T02:45:19.142Z,101171.27
2018-06-04T02:45:40.896Z,101175.72
2018-06-04T02:46:02.677Z,101175.33
2018-06-04T02:46:24.455Z,101171.00
2018-06-04T02:46:46.210Z,101175.84
2018-06-04T02:47:07.967Z,101174.16
2018-06-04T02:47:29.728Z,101174.80
2018-06-04T02:47:51.494Z,101170.74
2018-06-04T02:48:13.262Z,101175.20
2018-06-04T02:48:35.020Z,101170.74
2018-06-04T02:48:56.775Z,101159.45
2018-06-04T02:49:18.534Z,101171.39
2018-06-04T02:49:40.319Z,101166.66
2018-06-04T02:50:02.193Z,101158.93
2018-06-04T02:50:23.870Z,101172.18
2018-06-04T02:50:45.631Z,101164.17
2018-06-04T02:51:07.401Z,101168.78
2018-06-04T02:51:29.139Z,101170.22
2018-06-04T02:51:50.882Z,101169.70
2018-06-04T02:52:12.634Z,101164.17
2018-06-04T02:52:34.401Z,101164.30
2018-06-04T02:52:56.168Z,101162.59
2018-06-04T02:53:17.937Z,101160.09
2018-06-04T02:53:39.694Z,101164.16
2018-06-04T02:54:01.465Z,101164.28
2018-06-04T02:54:23.235Z,101163.24
2018-06-04T02:54:45.020Z,101166.39
2018-06-04T02:55:06.784Z,101158.02
2018-06-04T02:55:28.544Z,101167.59
2018-06-04T02:55:50.309Z,101170.62
2018-06-04T02:56:12.067Z,101169.03
2018-06-04T02:56:33.852Z,101159.72
2018-06-04T02:56:55.602Z,101166.28
2018-06-04T02:57:17.431Z,101167.07
2018-06-04T02:57:39.197Z,101169.43
2018-06-04T02:58:00.961Z,101158.14
2018-06-04T02:58:22.725Z,101166.67
2018-06-04T02:58:44.484Z,101170.45
2018-06-04T02:59:06.258Z,101164.28
2018-06-04T02:59:28.016Z,101161.94
2018-06-04T02:59:49.788Z,101162.58
2018-06-04T03:00:11.548Z,101158.64
2018-06-04T03:00:33.311Z,101164.45
2018-06-04T03:00:55.083Z,101155.09
2018-06-04T03:01:16.872Z,101158.64
2018-06-04T03:01:38.627Z,101154.86
2018-06-04T03:02:00.367Z,101159.59
2018-06-04T03:02:22.127Z,101155.09
2018-06-04T03:02:43.892Z,101156.41
2018-06-04T03:03:05.665Z,101163.38
2018-06-04T03:03:27.424Z,101159.70
2018-06-04T03:03:49.188Z,101160.75
2018-06-04T03:04:10.935Z,101159.95
2018-06-04T03:04:32.691Z,101159.20
2018-06-04T03:04:54.457Z,101161.02
2018-06-04T03:05:16.220Z,101156.55
2018-06-04T03:05:37.984Z,101153.66
2018-06-04T03:05:59.746Z,101153.79
2018-06-04T03:06:21.500Z,101158.27
2018-06-04T03:06:43.491Z,101158.91
2018-06-04T03:07:05.257Z,101158.13
2018-06-04T03:07:27.002Z,101149.62
2018-06-04T03:07:48.791Z,101148.70
2018-06-04T03:08:10.555Z,101158.39
2018-06-04T03:08:32.323Z,101149.09
2018-06-04T03:08:54.076Z,101154.86
2018-06-04T03:09:15.832Z,101151.84
2018-06-04T03:09:37.590Z,101149.09
2018-06-04T03:09:59.360Z,101149.45
2018-06-04T03:10:21.111Z,101152.23
2018-06-04T03:10:42.855Z,101153.28
2018-06-04T03:11:04.623Z,101146.47
2018-06-04T03:11:26.391Z,101148.53
2018-06-04T03:11:48.179Z,101156.29
2018-06-04T03:12:09.927Z,101151.43
2018-06-04T03:12:31.674Z,101152.34
2018-06-04T03:12:53.424Z,101149.33
2018-06-04T03:13:15.186Z,101160.09
2018-06-04T03:13:36.957Z,101142.37
2018-06-04T03:13:58.719Z,101155.77
2018-06-04T03:14:20.470Z,101152.62
2018-06-04T03:14:42.232Z,101142.39
2018-06-04T03:15:04.021Z,101148.03
2018-06-04T03:15:25.796Z,101149.20
2018-06-04T03:15:47.551Z,101153.80
2018-06-04T03:16:09.323Z,101151.97
2018-06-04T03:16:31.075Z,101154.20
2018-06-04T03:16:52.864Z,101143.30
2018-06-04T03:17:14.633Z,101151.83
2018-06-04T03:17:36.394Z,101147.38
2018-06-04T03:17:58.164Z,101146.58
2018-06-04T03:18:19.930Z,101144.34
2018-06-04T03:18:41.692Z,101143.43
2018-06-04T03:19:03.464Z,101152.62
2018-06-04T03:19:25.235Z,101148.17
2018-06-04T03:19:47.001Z,101146.99
2018-06-04T03:20:08.793Z,101146.86
2018-06-04T03:20:30.567Z,101152.74
2018-06-04T03:20:52.342Z,101149.09
2018-06-04T03:21:14.111Z,101142.27
2018-06-04T03:21:35.877Z,101150.92
2018-06-04T03:21:57.628Z,101149.62
2018-06-04T03:22:19.395Z,101145.16
2018-06-04T03:22:41.165Z,101144.64
2018-06-04T03:23:02.916Z,101151.72
2018-06-04T03:23:24.664Z,101150.92
2018-06-04T03:23:46.436Z,101151.59
2018-06-04T03:24:08.187Z,101151.20
2018-06-04T03:24:29.943Z,101150.14
2018-06-04T03:24:51.721Z,101154.59
2018-06-04T03:25:13.492Z,101150.14
2018-06-04T03:25:35.242Z,101155.66
2018-06-04T03:25:57.020Z,101150.80
2018-06-04T03:26:18.778Z,101153.95
2018-06-04T03:26:40.535Z,101150.14
2018-06-04T03:27:02.303Z,101144.49
2018-06-04T03:27:24.080Z,101149.34
2018-06-04T03:27:45.843Z,101147.91
2018-06-04T03:28:07.607Z,101149.48
2018-06-04T03:28:29.362Z,101148.05
2018-06-04T03:28:51.127Z,101153.95
2018-06-04T03:29:12.884Z,101148.17
2018-06-04T03:29:34.649Z,101150.66
2018-06-04T03:29:56.403Z,101153.02
2018-06-04T03:30:18.172Z,101154.72
2018-06-04T03:30:39.937Z,101146.33
2018-06-04T03:31:01.680Z,101150.66
2018-06-04T03:31:23.454Z,101151.97
2018-06-04T03:31:45.215Z,101151.58
2018-06-04T03:32:06.979Z,101144.88
2018-06-04T03:32:28.718Z,101151.70
2018-06-04T03:32:50.471Z,101153.28
2018-06-04T03:33:12.245Z,101148.17
2018-06-04T03:33:34.114Z,101147.78
2018-06-04T03:33:55.867Z,101147.39
2018-06-04T03:34:17.630Z,101149.34
2018-06-04T03:34:39.386Z,101147.66
2018-06-04T03:35:01.134Z,101150.92
2018-06-04T03:35:22.901Z,101145.67
2018-06-04T03:35:44.664Z,101139.64
2018-06-04T03:36:06.419Z,101148.03
2018-06-04T03:36:28.176Z,101145.28
2018-06-04T03:36:49.941Z,101140.80
2018-06-04T03:37:11.696Z,101139.64
2018-06-04T03:37:33.454Z,101143.97
2018-06-04T03:37:55.215Z,101143.70
2018-06-04T03:38:16.981Z,101146.97
2018-06-04T03:38:38.730Z,101150.91
2018-06-04T03:39:00.484Z,101138.31
2018-06-04T03:39:22.240Z,101140.93
2018-06-04T03:39:44.012Z,101145.52
2018-06-04T03:40:05.785Z,101135.44
2018-06-04T03:40:27.545Z,101136.99
2018-06-04T03:40:49.307Z,101139.09
2018-06-04T03:41:11.075Z,101137.78
2018-06-04T03:41:32.829Z,101138.70
2018-06-04T03:41:54.582Z,101140.80
2018-06-04T03:42:16.344Z,101136.34
2018-06-04T03:42:38.099Z,101137.41
2018-06-04T03:42:59.855Z,101136.62
2018-06-04T03:43:21.620Z,101135.45
2018-06-04T03:43:43.375Z,101130.33
2018-06-04T03:44:05.146Z,101131.89
2018-06-04T03:44:26.903Z,101137.27
2018-06-04T03:44:48.660Z,101138.19
2018-06-04T03:45:10.445Z,101141.47
2018-06-04T03:45:32.195Z,101134.14
2018-06-04T03:45:53.942Z,101135.30
2018-06-04T03:46:15.695Z,101138.33
2018-06-04T03:46:37.468Z,101132.28
2018-06-04T03:46:59.224Z,101132.55
2018-06-04T03:47:21.001Z,101137.02
2018-06-04T03:47:42.765Z,101143.45
2018-06-04T03:48:04.524Z,101135.97
2018-06-04T03:48:26.275Z,101140.30
2018-06-04T03:48:48.038Z,101146.47
2018-06-04T03:49:09.808Z,101135.58
2018-06-04T03:49:31.568Z,101142.41
2018-06-04T03:49:53.307Z,101143.32
2018-06-04T03:50:15.080Z,101147.27
2018-06-04T03:50:36.837Z,101143.05
2018-06-04T03:50:58.599Z,101135.30
2018-06-04T03:51:20.360Z,101137.02
2018-06-04T03:51:42.119Z,101126.78
2018-06-04T03:52:03.896Z,101135.30
2018-06-04T03:52:25.670Z,101139.64
2018-06-04T03:52:47.435Z,101137.41
2018-06-04T03:53:09.192Z,101131.77
2018-06-04T03:53:30.945Z,101133.61
2018-06-04T03:53:52.709Z,101144.23
2018-06-04T03:54:14.464Z,101140.03
2018-06-04T03:54:36.230Z,101143.05
2018-06-04T03:54:57.983Z,101135.45
2018-06-04T03:55:19.743Z,101142.53
2018-06-04T03:55:41.500Z,101133.61
2018-06-04T03:56:03.252Z,101133.34
2018-06-04T03:56:25.003Z,101145.03
2018-06-04T03:56:46.767Z,101135.84
2018-06-04T03:57:08.533Z,101137.00
2018-06-04T03:57:30.308Z,101138.08
2018-06-04T03:57:52.063Z,101135.45
2018-06-04T03:58:13.828Z,101144.23
2018-06-04T03:58:35.593Z,101139.26
2018-06-04T03:58:57.377Z,101143.20
2018-06-04T03:59:19.147Z,101132.14
2018-06-04T03:59:40.906Z,101135.33
2018-06-04T04:00:02.659Z,101132.43
2018-06-04T04:00:24.429Z,101140.02
2018-06-04T04:00:46.179Z,101137.78
2018-06-04T04:01:07.940Z,101137.00
2018-06-04T04:01:29.714Z,101141.86
2018-06-04T04:01:51.461Z,101139.89
2018-06-04T04:02:13.239Z,101141.20
2018-06-04T04:02:34.990Z,101139.63
2018-06-04T04:02:56.761Z,101134.12
2018-06-04T04:03:18.531Z,101137.27
2018-06-04T04:03:40.287Z,101127.45
2018-06-04T04:04:02.042Z,101130.98
2018-06-04T04:04:23.803Z,101138.86
2018-06-04T04:04:45.548Z,101131.39
2018-06-04T04:05:07.302Z,101128.77
2018-06-04T04:05:29.077Z,101135.58
2018-06-04T04:05:50.864Z,101131.11
2018-06-04T04:06:45.369Z,101133.45
2018-06-04T04:07:07.137Z,101134.12
2018-06-04T04:07:28.875Z,101131.75
2018-06-04T04:07:50.633Z,101131.52
2018-06-04T04:08:12.402Z,101135.84
2018-06-04T04:08:34.186Z,101137.78
2018-06-04T04:08:55.964Z,101133.22